createdAt,value
2019-03-22T00:04:27.918Z,13.40
2019-03-22T00:09:30.953Z,16.00
2019-03-22T00:14:36.742Z,12.07
2019-03-22T00:19:38.969Z,12.87
2019-03-22T00:24:41.966Z,15.63
2019-03-22T00:29:45.097Z,15.43
2019-03-22T00:34:48.568Z,15.40
2019-03-22T00:39:51.644Z,11.40
2019-03-22T00:44:54.603Z,7.90
2019-03-22T00:49:57.603Z,13.10
2019-03-22T00:55:00.672Z,12.33
2019-03-22T01:00:04.946Z,13.57
2019-03-22T01:05:10.010Z,13.60
2019-03-22T01:10:13.462Z,14.60
2019-03-22T01:15:17.049Z,13.40
2019-03-22T01:20:20.024Z,7.83
2019-03-22T01:25:22.988Z,8.57
2019-03-22T01:30:25.991Z,13.07
2019-03-22T01:35:29.136Z,14.20
2019-03-22T01:40:32.854Z,9.50
2019-03-22T01:45:35.784Z,10.07
2019-03-22T01:50:38.742Z,8.10
2019-03-22T01:55:41.759Z,8.27
2019-03-22T02:00:44.751Z,9.13
2019-03-22T02:05:48.940Z,9.93
2019-03-22T02:10:52.031Z,12.30
2019-03-22T02:15:55.636Z,10.40
2019-03-22T02:20:58.708Z,9.97
2019-03-22T02:26:01.721Z,10.53
2019-03-22T02:31:04.836Z,10.93
2019-03-22T02:36:08.169Z,11.10
2019-03-22T02:41:11.157Z,13.07
2019-03-22T02:46:14.130Z,11.73
2019-03-22T02:51:17.192Z,11.23
2019-03-22T02:56:20.380Z,10.23
2019-03-22T03:01:23.507Z,7.87
2019-03-22T03:06:26.775Z,11.13
2019-03-22T03:11:29.860Z,12.63
2019-03-22T03:16:33.596Z,13.60
2019-03-22T03:21:36.641Z,11.20
2019-03-22T03:26:40.716Z,17.27
2019-03-22T03:31:43.742Z,8.33
2019-03-22T03:36:46.865Z,10.63
2019-03-22T03:41:49.811Z,12.30
2019-03-22T03:46:53.041Z,9.27
2019-03-22T03:51:56.867Z,11.43
2019-03-22T03:56:59.915Z,13.20
2019-03-22T04:02:02.971Z,13.10
2019-03-22T04:07:08.228Z,8.73
2019-03-22T04:12:11.545Z,10.37
2019-03-22T04:17:16.313Z,10.83
2019-03-22T04:22:21.803Z,10.93
2019-03-22T04:27:24.901Z,7.97
2019-03-22T04:32:27.919Z,8.60
2019-03-22T04:37:31.864Z,9.10
2019-03-22T04:42:34.919Z,11.87
2019-03-22T04:47:38.289Z,12.70
2019-03-22T04:52:41.764Z,10.83
2019-03-22T04:57:45.756Z,8.80
2019-03-22T05:02:50.195Z,12.37
2019-03-22T05:07:54.044Z,8.53
2019-03-22T05:12:59.557Z,10.37
2019-03-22T05:18:03.164Z,8.83
2019-03-22T05:23:06.540Z,10.33
2019-03-22T05:28:11.480Z,10.00
2019-03-22T05:33:14.529Z,6.80
2019-03-22T05:38:17.459Z,12.50
2019-03-22T05:43:20.973Z,10.67
2019-03-22T05:48:24.934Z,7.97
2019-03-22T05:53:27.923Z,9.73
2019-03-22T05:58:31.012Z,10.70
2019-03-22T06:03:33.968Z,14.77
2019-03-22T06:08:37.017Z,15.37
2019-03-22T06:13:40.100Z,11.53
2019-03-22T06:18:43.398Z,10.33
2019-03-22T06:23:46.439Z,14.77
2019-03-22T06:28:49.516Z,12.73
2019-03-22T06:33:52.505Z,12.00
2019-03-22T06:38:55.664Z,12.93
2019-03-22T06:43:58.724Z,10.07
2019-03-22T06:49:02.499Z,10.30
2019-03-22T06:54:05.650Z,13.07
2019-03-22T06:59:08.619Z,8.53
2019-03-22T07:04:12.796Z,12.83
2019-03-22T07:09:15.773Z,10.60
2019-03-22T07:14:19.228Z,9.30
2019-03-22T07:19:22.641Z,12.93
2019-03-22T07:24:25.651Z,9.80
2019-03-22T07:29:29.319Z,15.70
2019-03-22T07:34:32.574Z,16.17
2019-03-22T07:39:35.661Z,8.33
2019-03-22T07:44:39.008Z,14.57
2019-03-22T07:49:42.107Z,10.40
2019-03-22T07:54:46.106Z,12.97
2019-03-22T07:59:49.448Z,8.97
2019-03-22T08:04:52.875Z,20.23
2019-03-22T08:09:55.960Z,13.80
2019-03-22T08:14:59.107Z,4.87
2019-03-22T08:20:02.476Z,10.77
2019-03-22T08:25:07.071Z,7.03
2019-03-22T08:30:10.235Z,14.77
2019-03-22T08:35:13.453Z,9.50
2019-03-22T08:40:16.404Z,16.97
2019-03-22T08:45:19.308Z,11.13
2019-03-22T08:50:23.316Z,8.33
2019-03-22T08:55:26.251Z,12.60
2019-03-22T09:00:38.660Z,15.03
2019-03-22T09:05:33.967Z,15.43
2019-03-22T09:10:36.842Z,10.77
2019-03-22T09:15:41.765Z,15.27
2019-03-22T09:20:45.028Z,9.90
2019-03-22T09:25:48.476Z,15.10
2019-03-22T09:30:51.597Z,10.97
2019-03-22T09:35:54.560Z,12.23
2019-03-22T09:40:57.863Z,13.77
2019-03-22T09:46:00.762Z,12.73
2019-03-22T09:51:05.684Z,9.00
2019-03-22T09:56:08.655Z,10.53
2019-03-22T10:01:23.123Z,11.37
2019-03-22T10:06:16.459Z,7.97
2019-03-22T10:11:19.468Z,22.33
2019-03-22T10:16:22.403Z,11.60
2019-03-22T10:21:25.547Z,8.33
2019-03-22T10:26:28.550Z,9.30
2019-03-22T10:31:37.037Z,10.87
2019-03-22T10:36:36.210Z,6.23
2019-03-22T12:01:08.465Z,3.97
2019-03-22T12:06:11.668Z,4.27
2019-03-22T12:11:15.456Z,4.10
2019-03-22T12:16:18.279Z,5.00
2019-03-22T12:21:22.296Z,6.93
2019-03-22T12:26:25.842Z,6.97
2019-03-22T12:31:28.759Z,7.03
2019-03-22T12:36:32.135Z,9.97
2019-03-22T12:41:35.283Z,6.37
2019-03-22T12:46:38.583Z,9.23
2019-03-22T12:51:42.035Z,7.93
2019-03-22T12:56:45.473Z,6.93
2019-03-22T13:01:51.499Z,8.70
2019-03-22T13:06:54.793Z,7.60
2019-03-22T13:11:58.511Z,7.53
2019-03-22T13:17:02.467Z,22.13
2019-03-22T13:22:05.731Z,10.03
2019-03-22T13:27:09.200Z,6.93
2019-03-22T13:32:12.716Z,7.10
2019-03-22T13:37:15.915Z,9.27
2019-03-22T13:42:18.831Z,7.80
2019-03-22T13:47:21.708Z,6.60
2019-03-22T13:52:25.828Z,8.20
2019-03-22T13:57:28.733Z,6.73
2019-03-22T14:02:31.687Z,4.83
2019-03-22T14:07:34.876Z,5.70
2019-03-22T14:12:37.830Z,4.87
2019-03-22T14:17:40.747Z,11.70
2019-03-22T14:22:43.629Z,7.03
2019-03-22T14:27:46.713Z,5.47
2019-03-22T14:32:49.695Z,4.77
2019-03-22T14:37:53.231Z,6.70
2019-03-22T14:42:56.503Z,4.33
2019-03-22T14:47:59.347Z,6.25
2019-03-22T14:53:02.409Z,4.70
2019-03-22T14:58:05.421Z,6.92
2019-03-22T15:03:24.321Z,7.20
2019-03-22T15:08:29.975Z,4.47
2019-03-22T15:13:35.784Z,5.42
2019-03-22T15:19:06.537Z,5.42
2019-03-22T15:24:29.163Z,5.15
2019-03-22T15:29:50.112Z,8.98
2019-03-22T15:35:11.092Z,4.53
2019-03-22T15:40:14.576Z,6.45
2019-03-22T15:45:18.445Z,5.97
2019-03-22T15:50:21.601Z,4.70
2019-03-22T16:51:23.440Z,4.00
2019-03-22T16:56:27.241Z,4.42
2019-03-22T17:01:30.335Z,6.30
2019-03-22T17:06:36.191Z,7.40
2019-03-22T17:11:39.511Z,5.77
2019-03-22T17:16:43.705Z,4.40
2019-03-22T17:21:46.689Z,5.23
2019-03-22T17:26:49.599Z,7.50
2019-03-22T17:31:55.721Z,7.27
2019-03-22T17:36:59.880Z,6.47
2019-03-22T17:42:02.805Z,6.63
2019-03-22T17:47:05.962Z,6.20
2019-03-22T17:52:08.743Z,7.47
2019-03-22T17:57:18.363Z,7.73
2019-03-22T18:02:16.356Z,7.33
2019-03-22T18:07:19.795Z,8.57
2019-03-22T18:12:23.391Z,6.07
2019-03-22T18:17:27.200Z,6.73
2019-03-22T18:22:30.519Z,6.00
2019-03-22T18:27:33.887Z,7.07
2019-03-22T18:32:37.222Z,5.47
2019-03-22T18:43:28.343Z,5.07
2019-03-22T18:48:32.480Z,6.27
2019-03-22T18:53:37.279Z,9.17
2019-03-22T18:58:40.574Z,8.10
2019-03-22T19:03:43.656Z,6.90
2019-03-22T19:08:47.471Z,6.43
2019-03-22T19:13:51.553Z,5.50
2019-03-22T19:18:56.035Z,7.00
2019-03-22T19:23:59.382Z,9.80
2019-03-22T19:29:04.039Z,7.20
2019-03-22T19:34:07.127Z,6.67
2019-03-22T19:39:10.381Z,11.37
2019-03-22T19:44:13.793Z,7.00
2019-03-22T19:49:17.391Z,12.17
2019-03-22T19:54:20.920Z,7.87
2019-03-22T19:59:24.063Z,9.30
2019-03-22T20:04:27.076Z,12.57
2019-03-22T20:09:30.300Z,10.37
2019-03-22T20:14:34.024Z,9.93
2019-03-22T20:19:39.087Z,13.70
2019-03-22T20:24:42.327Z,11.70
2019-03-22T20:29:45.590Z,11.97
2019-03-22T20:34:48.920Z,10.23
2019-03-22T20:39:52.122Z,15.70
2019-03-22T20:44:55.083Z,9.63
2019-03-22T20:49:58.308Z,10.63
2019-03-22T20:55:01.297Z,13.30
2019-03-22T21:00:05.756Z,14.23
2019-03-22T21:05:09.321Z,16.73
2019-03-22T21:10:13.799Z,13.57
2019-03-22T21:15:24.285Z,15.70
2019-03-22T21:20:22.972Z,14.60
2019-03-22T21:25:25.879Z,12.20
2019-03-22T21:30:29.406Z,10.77
2019-03-22T21:35:37.215Z,14.17
2019-03-22T21:40:37.231Z,17.60
2019-03-22T21:45:40.195Z,13.13
2019-03-22T21:50:44.591Z,16.30
2019-03-22T21:55:47.928Z,13.87
2019-03-22T22:00:50.883Z,13.33
2019-03-22T22:05:54.104Z,16.80
2019-03-22T22:11:00.017Z,12.53
2019-03-22T22:16:01.683Z,17.07
2019-03-22T22:21:04.814Z,13.80
2019-03-22T22:26:08.301Z,19.43
2019-03-22T22:31:11.195Z,14.57
2019-03-22T22:36:14.799Z,15.30
2019-03-22T22:41:18.454Z,13.13
2019-03-22T22:46:21.391Z,14.43
2019-03-22T22:51:24.636Z,15.20
2019-03-22T22:56:28.402Z,16.23
2019-03-22T23:01:31.678Z,15.37
2019-03-22T23:06:34.587Z,16.10
2019-03-22T23:11:37.702Z,17.57
2019-03-22T23:16:40.672Z,17.20
2019-03-22T23:21:43.618Z,23.37
2019-03-22T23:26:46.720Z,19.73
2019-03-22T23:31:49.927Z,21.33
2019-03-22T23:36:52.881Z,20.97
2019-03-22T23:41:55.775Z,24.37
2019-03-22T23:46:58.655Z,28.53
2019-03-22T23:52:01.659Z,27.10
2019-03-22T23:57:04.932Z,28.63
